Time;durP1;ratioP1;P1;durP2;ratioP2;P2;SDS_P1;SDS_P2;PMS_P1;PMS_P2;Temp;Humidity;BMP_temperature;BMP_pressure;BME280_temperature;BME280_humidity;BME280_pressure;Samples;Min_cycle;Max_cycle;Signal;HPM_P1;HPM_P2
2022/05/11 00:00:45;;;;;;;5.10;1.90;;;;;;;;;;5053372;28;20558;-62
2022/05/11 00:03:11;;;;;;;2.47;1.60;;;;;;;;;;5053912;28;20632;-62
2022/05/11 00:05:36;;;;;;;2.75;1.75;;;;;;;;;;5053022;28;20239;-63
2022/05/11 00:08:03;;;;;;;5.28;2.08;;;;;;;;;;5053502;28;20674;-62
2022/05/11 00:10:28;;;;;;;5.70;2.33;;;;;;;;;;5053989;28;20231;-62
2022/05/11 00:12:53;;;;;;;6.55;2.20;;;;;;;;;;5052847;28;20207;-62
2022/05/11 00:15:19;;;;;;;6.18;1.85;;;;;;;;;;5044966;28;20709;-62
2022/05/11 00:17:45;;;;;;;5.40;2.00;;;;;;;;;;5053966;28;20207;-62
2022/05/11 00:20:11;;;;;;;7.25;1.90;;;;;;;;;;5052635;28;20217;-62
2022/05/11 00:22:37;;;;;;;4.47;1.88;;;;;;;;;;5053503;28;20239;-62
2022/05/11 00:25:02;;;;;;;3.78;1.70;;;;;;;;;;5035670;28;20270;-62
2022/05/11 00:27:27;;;;;;;4.63;1.83;;;;;;;;;;5052967;28;20215;-62
2022/05/11 00:29:53;;;;;;;3.75;1.70;;;;;;;;;;5053610;28;20207;-62
2022/05/11 00:32:18;;;;;;;6.43;1.60;;;;;;;;;;5053329;28;20666;-62
2022/05/11 00:34:44;;;;;;;3.80;1.92;;;;;;;;;;5052732;28;20223;-62
2022/05/11 00:37:09;;;;;;;3.38;1.60;;;;;;;;;;5052892;28;20207;-62
2022/05/11 00:39:35;;;;;;;3.83;1.90;;;;;;;;;;5053495;28;20203;-62
2022/05/11 00:42:01;;;;;;;2.95;1.50;;;;;;;;;;5052710;28;20572;-62
2022/05/11 00:44:27;;;;;;;3.67;1.80;;;;;;;;;;5052892;28;20357;-62
2022/05/11 00:46:55;;;;;;;3.83;1.92;;;;;;;;;;5053568;28;20294;-62
2022/05/11 00:49:35;;;;;;;5.03;1.98;;;;;;;;;;5052002;28;26212;-62
2022/05/11 00:52:02;;;;;;;6.57;2.20;;;;;;;;;;5036995;28;20219;-62
2022/05/11 00:54:27;;;;;;;4.07;1.60;;;;;;;;;;5034786;28;20215;-62
2022/05/11 00:56:54;;;;;;;5.50;1.90;;;;;;;;;;5051604;28;20214;-62
2022/05/11 00:59:21;;;;;;;4.47;2.10;;;;;;;;;;5052139;28;20334;-62
2022/05/11 01:01:46;;;;;;;6.80;2.58;;;;;;;;;;5034309;28;20207;-62
2022/05/11 01:04:12;;;;;;;5.72;2.30;;;;;;;;;;5036400;28;20222;-62
2022/05/11 01:06:38;;;;;;;7.93;2.88;;;;;;;;;;5053145;28;20215;-62
2022/05/11 01:09:03;;;;;;;6.32;2.80;;;;;;;;;;5051484;28;20700;-62
2022/05/11 01:11:29;;;;;;;6.43;2.75;;;;;;;;;;5052853;28;20215;-62
2022/05/11 01:13:54;;;;;;;5.75;2.75;;;;;;;;;;5048255;28;20212;-62
2022/05/11 01:16:20;;;;;;;5.60;2.67;;;;;;;;;;5052243;28;20223;-62
2022/05/11 01:18:45;;;;;;;8.48;3.10;;;;;;;;;;5035267;28;20223;-62
2022/05/11 01:21:10;;;;;;;6.68;3.08;;;;;;;;;;5052378;28;20636;-63
2022/05/11 01:23:38;;;;;;;7.88;3.30;;;;;;;;;;5051636;28;20223;-62
2022/05/11 01:26:03;;;;;;;6.75;3.72;;;;;;;;;;5034039;28;20239;-62
2022/05/11 01:28:29;;;;;;;7.13;3.22;;;;;;;;;;5052480;28;20330;-62
2022/05/11 01:31:01;;;;;;;5.35;3.22;;;;;;;;;;5051741;28;20287;-62
2022/05/11 01:33:26;;;;;;;9.25;3.63;;;;;;;;;;5052428;28;20211;-62
2022/05/11 01:36:03;;;;;;;7.00;3.47;;;;;;;;;;5052112;28;20221;-62
2022/05/11 01:38:31;;;;;;;5.88;3.67;;;;;;;;;;5014107;28;20219;-63
2022/05/11 01:40:56;;;;;;;7.25;4.10;;;;;;;;;;5022001;28;20678;-62
2022/05/11 01:43:23;;;;;;;5.85;3.55;;;;;;;;;;5051975;28;20268;-62
2022/05/11 01:45:48;;;;;;;7.05;4.32;;;;;;;;;;5044864;28;20631;-62
2022/05/11 01:48:13;;;;;;;6.65;5.07;;;;;;;;;;4994090;28;20647;-62
2022/05/11 01:50:39;;;;;;;6.57;4.28;;;;;;;;;;5014920;28;20423;-63
2022/05/11 01:53:04;;;;;;;8.88;4.20;;;;;;;;;;5013873;28;20265;-63
2022/05/11 01:55:30;;;;;;;7.45;4.60;;;;;;;;;;5022449;28;20291;-63
2022/05/11 01:57:55;;;;;;;8.10;4.30;;;;;;;;;;5023083;28;20297;-63
2022/05/11 02:00:20;;;;;;;8.75;4.47;;;;;;;;;;5021164;28;20675;-62
2022/05/11 02:02:45;;;;;;;7.38;4.40;;;;;;;;;;5025049;28;20273;-63
2022/05/11 02:07:55;;;;;;;6.45;4.10;;;;;;;;;;5027300;28;20304;-62
2022/05/11 02:10:22;;;;;;;6.35;3.85;;;;;;;;;;5021775;28;20692;-62
2022/05/11 02:12:47;;;;;;;8.43;3.78;;;;;;;;;;5034468;28;20745;-62
2022/05/11 02:15:14;;;;;;;8.07;4.18;;;;;;;;;;5020627;28;20211;-63
2022/05/11 02:17:40;;;;;;;6.80;4.10;;;;;;;;;;5028409;28;20266;-63
2022/05/11 02:20:05;;;;;;;6.68;3.83;;;;;;;;;;5028072;28;20219;-63
2022/05/11 02:22:31;;;;;;;7.22;4.10;;;;;;;;;;5029337;28;20253;-62
2022/05/11 02:24:56;;;;;;;7.10;4.00;;;;;;;;;;5028999;28;20274;-63
2022/05/11 02:27:21;;;;;;;7.45;4.20;;;;;;;;;;5027738;28;20582;-62
2022/05/11 02:29:47;;;;;;;7.32;3.78;;;;;;;;;;5029348;28;20212;-62
2022/05/11 02:32:12;;;;;;;5.15;3.80;;;;;;;;;;5024027;28;20666;-63
2022/05/11 02:37:21;;;;;;;7.85;3.75;;;;;;;;;;5030385;28;20265;-62
2022/05/11 02:39:48;;;;;;;8.30;3.83;;;;;;;;;;5026645;28;20211;-63
2022/05/11 02:42:14;;;;;;;6.30;3.70;;;;;;;;;;5027788;28;20243;-62
2022/05/11 02:44:39;;;;;;;7.28;4.10;;;;;;;;;;5028968;28;20270;-62
2022/05/11 02:47:04;;;;;;;9.38;4.25;;;;;;;;;;5028862;28;20257;-62
2022/05/11 02:49:29;;;;;;;7.75;3.97;;;;;;;;;;5028220;28;20211;-63
2022/05/11 02:51:55;;;;;;;5.75;3.35;;;;;;;;;;5029211;28;20358;-62
2022/05/11 02:54:20;;;;;;;9.73;4.05;;;;;;;;;;5024132;28;20431;-62
2022/05/11 02:56:45;;;;;;;7.97;4.03;;;;;;;;;;5021244;28;20215;-62
2022/05/11 02:59:11;;;;;;;6.03;4.10;;;;;;;;;;5020525;28;20327;-62
2022/05/11 03:01:36;;;;;;;6.78;4.57;;;;;;;;;;5023411;28;20207;-62
2022/05/11 03:04:01;;;;;;;6.80;4.15;;;;;;;;;;5028235;28;20235;-62
2022/05/11 03:06:26;;;;;;;9.13;4.20;;;;;;;;;;5028784;28;20659;-62
2022/05/11 03:08:52;;;;;;;6.28;4.05;;;;;;;;;;5028054;28;20239;-62
2022/05/11 03:11:17;;;;;;;6.47;4.28;;;;;;;;;;5028233;28;20607;-62
2022/05/11 03:13:42;;;;;;;7.13;3.88;;;;;;;;;;5028765;28;20219;-62
2022/05/11 03:16:07;;;;;;;8.25;4.45;;;;;;;;;;5026867;28;20207;-62
2022/05/11 03:18:33;;;;;;;7.13;4.38;;;;;;;;;;5021185;28;20208;-62
2022/05/11 03:20:58;;;;;;;6.88;4.70;;;;;;;;;;5016908;28;20212;-62
2022/05/11 03:23:25;;;;;;;7.97;4.15;;;;;;;;;;5016540;28;20623;-63
2022/05/11 03:25:50;;;;;;;7.00;4.50;;;;;;;;;;5024504;28;20235;-63
2022/05/11 03:28:16;;;;;;;10.10;5.10;;;;;;;;;;5007430;28;20235;-63
2022/05/11 03:30:41;;;;;;;7.32;4.40;;;;;;;;;;5024273;28;20281;-63
2022/05/11 03:35:50;;;;;;;8.98;4.75;;;;;;;;;;5044602;28;20299;-62
2022/05/11 03:38:15;;;;;;;9.50;4.65;;;;;;;;;;5031875;28;20623;-62
2022/05/11 03:40:41;;;;;;;7.07;4.47;;;;;;;;;;5018877;28;20326;-63
2022/05/11 03:43:06;;;;;;;7.50;4.72;;;;;;;;;;5016539;28;20616;-62
2022/05/11 03:45:31;;;;;;;11.65;4.85;;;;;;;;;;5035538;28;20227;-62
2022/05/11 03:47:56;;;;;;;7.57;4.50;;;;;;;;;;5024882;28;20278;-62
2022/05/11 03:50:22;;;;;;;7.35;4.80;;;;;;;;;;5024070;28;20740;-62
2022/05/11 03:52:48;;;;;;;9.50;4.35;;;;;;;;;;5024349;28;20264;-62
2022/05/11 03:55:13;;;;;;;8.73;4.78;;;;;;;;;;5024367;28;20249;-62
2022/05/11 03:57:38;;;;;;;6.78;4.45;;;;;;;;;;5024131;28;20322;-62
2022/05/11 04:00:06;;;;;;;8.50;4.68;;;;;;;;;;5024718;28;20212;-62
2022/05/11 04:02:31;;;;;;;6.93;4.20;;;;;;;;;;5024801;28;20671;-62
2022/05/11 04:04:57;;;;;;;7.22;4.82;;;;;;;;;;4997981;28;20235;-62
2022/05/11 04:07:22;;;;;;;8.13;4.20;;;;;;;;;;4996437;28;20720;-62
2022/05/11 04:09:47;;;;;;;6.93;4.13;;;;;;;;;;5002008;28;20216;-62
2022/05/11 04:12:13;;;;;;;7.70;4.63;;;;;;;;;;5003794;28;20205;-63
2022/05/11 04:14:39;;;;;;;7.75;4.38;;;;;;;;;;5004909;28;20204;-62
2022/05/11 04:17:04;;;;;;;8.32;4.50;;;;;;;;;;5004310;28;20687;-62
2022/05/11 04:19:29;;;;;;;9.98;4.32;;;;;;;;;;5004460;28;20220;-62
2022/05/11 04:21:55;;;;;;;7.82;4.43;;;;;;;;;;5005061;28;20235;-62
2022/05/11 04:24:20;;;;;;;10.10;4.35;;;;;;;;;;5001900;28;20335;-63
2022/05/11 04:26:45;;;;;;;7.28;4.03;;;;;;;;;;4996194;28;20220;-63
2022/05/11 04:29:10;;;;;;;9.18;4.00;;;;;;;;;;4995828;28;20307;-62
2022/05/11 04:31:36;;;;;;;7.65;3.90;;;;;;;;;;4998864;28;20235;-62
2022/05/11 04:34:01;;;;;;;8.85;3.92;;;;;;;;;;5003155;28;20247;-62
2022/05/11 04:36:28;;;;;;;8.60;3.47;;;;;;;;;;5004512;28;20204;-62
2022/05/11 04:38:53;;;;;;;6.80;3.58;;;;;;;;;;5005099;28;20220;-62
2022/05/11 04:41:18;;;;;;;6.40;3.20;;;;;;;;;;5003014;28;20223;-62
2022/05/11 04:43:44;;;;;;;8.63;3.53;;;;;;;;;;5004418;28;20581;-63
2022/05/11 04:46:09;;;;;;;6.20;3.40;;;;;;;;;;5003877;28;20240;-62
2022/05/11 04:48:34;;;;;;;6.65;3.35;;;;;;;;;;4996246;28;20319;-63
2022/05/11 04:51:00;;;;;;;5.57;3.28;;;;;;;;;;4996774;28;20216;-63
2022/05/11 04:53:26;;;;;;;6.85;3.30;;;;;;;;;;5007467;28;20208;-61
2022/05/11 04:55:51;;;;;;;7.88;3.35;;;;;;;;;;5031716;28;20229;-61
2022/05/11 04:58:16;;;;;;;7.50;3.50;;;;;;;;;;5049546;28;20432;-61
2022/05/11 05:00:41;;;;;;;9.35;3.30;;;;;;;;;;5053017;28;20677;-63
2022/05/11 05:03:07;;;;;;;7.63;3.10;;;;;;;;;;5051521;28;20680;-70
2022/05/11 05:05:32;;;;;;;8.98;3.05;;;;;;;;;;5052713;28;20223;-72
2022/05/11 05:07:58;;;;;;;8.82;3.10;;;;;;;;;;5050464;28;20199;-71
2022/05/11 05:10:23;;;;;;;7.25;3.40;;;;;;;;;;5051442;28;20559;-71
2022/05/11 05:12:48;;;;;;;12.73;3.20;;;;;;;;;;5052323;28;20195;-68
2022/05/11 05:15:15;;;;;;;6.55;3.10;;;;;;;;;;5051568;28;20233;-72
2022/05/11 05:17:40;;;;;;;7.88;3.03;;;;;;;;;;5050893;28;20655;-68
2022/05/11 05:20:07;;;;;;;8.45;2.88;;;;;;;;;;5051060;28;20213;-70
2022/05/11 05:22:32;;;;;;;5.70;2.95;;;;;;;;;;5049856;28;20215;-71
2022/05/11 05:24:58;;;;;;;6.47;2.90;;;;;;;;;;5052219;28;20222;-72
2022/05/11 05:27:23;;;;;;;7.15;2.72;;;;;;;;;;5051664;28;20290;-70
2022/05/11 05:32:34;;;;;;;6.68;2.80;;;;;;;;;;5030571;28;20277;-72
2022/05/11 05:34:59;;;;;;;9.95;2.75;;;;;;;;;;5032149;28;20212;-71
2022/05/11 05:37:24;;;;;;;6.38;2.70;;;;;;;;;;5030860;28;20211;-68
2022/05/11 05:39:50;;;;;;;6.18;2.72;;;;;;;;;;5032045;28;20203;-62
2022/05/11 05:42:17;;;;;;;8.35;2.90;;;;;;;;;;5031824;28;20303;-61
2022/05/11 05:44:42;;;;;;;11.15;3.10;;;;;;;;;;5015872;28;20227;-61
2022/05/11 05:47:08;;;;;;;8.32;3.03;;;;;;;;;;5031936;28;20211;-61
2022/05/11 05:49:33;;;;;;;5.60;2.60;;;;;;;;;;5044143;28;20706;-62
2022/05/11 05:51:59;;;;;;;7.18;2.83;;;;;;;;;;5046377;28;20298;-63
2022/05/11 05:54:25;;;;;;;6.85;2.85;;;;;;;;;;5018686;28;20252;-63
2022/05/11 05:56:50;;;;;;;8.88;2.80;;;;;;;;;;5049838;28;20259;-63
2022/05/11 05:59:16;;;;;;;5.22;2.70;;;;;;;;;;5049242;28;20239;-63
2022/05/11 06:01:41;;;;;;;6.63;2.88;;;;;;;;;;5031919;28;20215;-63
2022/05/11 06:04:07;;;;;;;6.18;2.47;;;;;;;;;;5032990;28;20585;-63
2022/05/11 06:06:32;;;;;;;6.60;2.72;;;;;;;;;;5031575;28;20224;-62
2022/05/11 06:08:58;;;;;;;4.70;2.90;;;;;;;;;;5039511;28;20214;-62
2022/05/11 06:11:23;;;;;;;8.50;2.90;;;;;;;;;;5050821;28;20293;-63
2022/05/11 06:13:48;;;;;;;6.97;3.05;;;;;;;;;;5032450;28;20210;-63
2022/05/11 06:16:14;;;;;;;6.55;2.90;;;;;;;;;;5030302;28;20554;-63
2022/05/11 06:18:41;;;;;;;6.63;2.88;;;;;;;;;;5031222;28;20235;-62
2022/05/11 06:21:07;;;;;;;6.78;2.88;;;;;;;;;;5025589;28;20564;-63
2022/05/11 06:23:32;;;;;;;8.48;2.60;;;;;;;;;;5027570;28;20214;-63
2022/05/11 06:25:57;;;;;;;7.70;3.00;;;;;;;;;;5027115;28;20231;-63
2022/05/11 06:28:23;;;;;;;6.32;2.40;;;;;;;;;;5027643;28;20207;-62
2022/05/11 06:30:48;;;;;;;6.35;2.80;;;;;;;;;;5026742;28;20224;-62
2022/05/11 06:33:13;;;;;;;8.95;2.75;;;;;;;;;;5026409;28;20307;-62
2022/05/11 06:35:39;;;;;;;5.28;2.40;;;;;;;;;;5029591;28;20581;-63
2022/05/11 06:38:05;;;;;;;6.50;2.50;;;;;;;;;;5011183;28;20216;-62
2022/05/11 06:40:30;;;;;;;7.82;2.65;;;;;;;;;;5027508;28;20219;-63
2022/05/11 06:42:56;;;;;;;6.28;2.40;;;;;;;;;;5023447;28;20220;-63
2022/05/11 06:45:23;;;;;;;5.50;1.92;;;;;;;;;;5024189;28;20674;-62
2022/05/11 06:47:49;;;;;;;6.80;2.03;;;;;;;;;;5025817;28;20675;-63
2022/05/11 06:50:15;;;;;;;6.65;2.40;;;;;;;;;;5025043;28;20630;-62
2022/05/11 06:52:40;;;;;;;5.50;1.92;;;;;;;;;;5025236;28;20235;-63
2022/05/11 07:00:33;;;;;;;8.13;2.15;;;;;;;;;;5025327;28;20443;-63
2022/05/11 07:02:59;;;;;;;10.52;2.17;;;;;;;;;;5045333;28;20288;-62
2022/05/11 07:05:25;;;;;;;7.55;2.08;;;;;;;;;;5048212;28;20227;-63
2022/05/11 07:07:50;;;;;;;8.02;1.67;;;;;;;;;;5047241;28;20215;-63
2022/05/11 07:10:16;;;;;;;5.88;1.70;;;;;;;;;;5047885;28;20211;-63
2022/05/11 07:12:46;;;;;;;7.05;1.75;;;;;;;;;;5033070;28;20670;-63
2022/05/11 07:15:12;;;;;;;5.30;1.70;;;;;;;;;;5052832;28;20222;-63
2022/05/11 07:17:38;;;;;;;6.93;2.38;;;;;;;;;;5054846;28;20203;-63
2022/05/11 07:20:06;;;;;;;7.47;1.90;;;;;;;;;;5008103;28;20211;-63
2022/05/11 07:22:31;;;;;;;7.22;1.60;;;;;;;;;;5046016;28;20609;-63
2022/05/11 07:24:56;;;;;;;6.00;1.65;;;;;;;;;;5030300;28;20330;-63
2022/05/11 07:27:22;;;;;;;6.82;1.70;;;;;;;;;;5044089;28;20223;-63
2022/05/11 07:29:47;;;;;;;4.35;1.63;;;;;;;;;;5032816;28;20202;-62
2022/05/11 07:32:13;;;;;;;4.65;1.55;;;;;;;;;;5052542;28;20214;-62
2022/05/11 07:34:39;;;;;;;6.72;1.95;;;;;;;;;;5053288;28;20314;-63
2022/05/11 07:37:05;;;;;;;6.50;1.63;;;;;;;;;;5053360;28;20568;-63
2022/05/11 07:39:30;;;;;;;5.57;1.65;;;;;;;;;;5054049;28;20210;-63
2022/05/11 07:41:55;;;;;;;7.18;1.63;;;;;;;;;;5036218;28;20214;-63
2022/05/11 07:44:21;;;;;;;5.80;1.65;;;;;;;;;;5053157;28;20211;-62
2022/05/11 07:46:47;;;;;;;6.03;1.38;;;;;;;;;;5053471;28;20317;-63
2022/05/11 07:49:12;;;;;;;9.50;1.50;;;;;;;;;;5053889;28;20302;-63
2022/05/11 07:51:37;;;;;;;6.20;1.27;;;;;;;;;;5053644;28;20298;-62
2022/05/11 07:54:03;;;;;;;4.00;1.13;;;;;;;;;;5053443;28;20704;-62
2022/05/11 08:01:57;;;;;;;7.70;1.38;;;;;;;;;;5053796;28;20237;-63
2022/05/11 08:04:22;;;;;;;4.47;1.45;;;;;;;;;;5050497;28;20282;-63
2022/05/11 08:06:48;;;;;;;4.85;1.20;;;;;;;;;;5041485;28;20230;-63
2022/05/11 08:09:13;;;;;;;6.45;1.30;;;;;;;;;;5053119;28;20207;-64
2022/05/11 08:11:38;;;;;;;3.08;0.90;;;;;;;;;;5053331;28;20677;-63
2022/05/11 08:14:04;;;;;;;7.15;1.80;;;;;;;;;;5053561;28;20257;-63
2022/05/11 08:16:29;;;;;;;9.13;1.30;;;;;;;;;;5053664;28;20207;-63
2022/05/11 08:18:55;;;;;;;5.80;1.10;;;;;;;;;;5052552;28;20221;-63
2022/05/11 08:21:20;;;;;;;5.03;1.30;;;;;;;;;;5053325;28;20298;-63
2022/05/11 08:23:47;;;;;;;8.73;1.73;;;;;;;;;;5053581;28;20230;-63
2022/05/11 08:26:12;;;;;;;5.75;1.40;;;;;;;;;;5052451;28;20269;-63
2022/05/11 08:28:37;;;;;;;9.40;2.30;;;;;;;;;;5053244;28;20638;-64
2022/05/11 08:33:47;;;;;;;8.63;1.55;;;;;;;;;;5052640;28;20285;-63
2022/05/11 08:36:13;;;;;;;5.82;1.33;;;;;;;;;;5053128;28;20203;-63
2022/05/11 08:38:40;;;;;;;4.55;1.33;;;;;;;;;;5052887;28;20253;-64
2022/05/11 08:41:06;;;;;;;7.30;1.30;;;;;;;;;;5017272;28;20231;-63
2022/05/11 08:43:31;;;;;;;10.20;1.20;;;;;;;;;;5033623;28;20599;-63
2022/05/11 08:46:01;;;;;;;6.32;1.48;;;;;;;;;;5033166;28;20721;-63
2022/05/11 08:48:34;;;;;;;8.18;1.48;;;;;;;;;;5035956;28;20207;-63
2022/05/11 08:50:59;;;;;;;6.60;1.27;;;;;;;;;;5019103;28;20210;-63
2022/05/11 08:53:30;;;;;;;6.85;1.40;;;;;;;;;;5030471;28;20203;-64
2022/05/11 08:55:56;;;;;;;7.78;1.23;;;;;;;;;;5032014;28;20269;-64
2022/05/11 08:58:23;;;;;;;5.63;1.60;;;;;;;;;;5022291;28;20220;-64
2022/05/11 09:00:48;;;;;;;5.03;1.35;;;;;;;;;;5022921;28;20208;-64
2022/05/11 09:03:17;;;;;;;8.60;1.48;;;;;;;;;;5017153;28;20215;-63
2022/05/11 09:05:43;;;;;;;4.97;1.60;;;;;;;;;;5030953;28;20227;-63
2022/05/11 09:08:09;;;;;;;5.13;1.55;;;;;;;;;;5050685;28;20317;-63
2022/05/11 09:10:35;;;;;;;6.18;1.45;;;;;;;;;;5020061;28;20626;-64
2022/05/11 09:13:02;;;;;;;7.00;1.50;;;;;;;;;;5032112;28;20224;-63
2022/05/11 09:15:55;;;;;;;7.47;1.85;;;;;;;;;;5014470;28;20261;-63
2022/05/11 09:18:21;;;;;;;8.15;1.80;;;;;;;;;;5030272;28;20251;-63
2022/05/11 09:20:47;;;;;;;6.05;1.52;;;;;;;;;;5039826;28;20686;-63
2022/05/11 09:23:13;;;;;;;5.38;1.58;;;;;;;;;;5042318;28;20219;-64
2022/05/11 09:25:51;;;;;;;9.40;1.55;;;;;;;;;;5005830;28;20227;-63
2022/05/11 09:28:19;;;;;;;8.98;1.83;;;;;;;;;;5024100;28;20223;-63
2022/05/11 09:30:59;;;;;;;5.88;1.88;;;;;;;;;;5008109;28;20220;-64
2022/05/11 09:33:26;;;;;;;9.23;2.17;;;;;;;;;;5002744;28;20203;-63
2022/05/11 09:35:51;;;;;;;5.70;1.58;;;;;;;;;;5005447;28;20207;-63
2022/05/11 09:38:17;;;;;;;10.13;2.33;;;;;;;;;;5015162;28;20596;-63
2022/05/11 09:40:56;;;;;;;8.90;1.83;;;;;;;;;;5030851;28;20216;-64
2022/05/11 09:43:27;;;;;;;6.63;1.70;;;;;;;;;;5030080;28;20211;-63
2022/05/11 09:45:53;;;;;;;8.13;1.90;;;;;;;;;;5030564;28;20219;-63
2022/05/11 09:48:20;;;;;;;6.10;1.73;;;;;;;;;;5027163;28;20219;-63
2022/05/11 09:50:47;;;;;;;5.95;1.60;;;;;;;;;;4986691;28;20220;-63
2022/05/11 09:53:22;;;;;;;9.00;1.90;;;;;;;;;;5020237;28;20326;-63
2022/05/11 09:55:48;;;;;;;7.07;1.88;;;;;;;;;;4994201;28;20224;-63
2022/05/11 09:58:13;;;;;;;9.18;1.90;;;;;;;;;;5022746;28;20270;-63
2022/05/11 10:00:39;;;;;;;7.25;1.63;;;;;;;;;;4982184;28;20319;-64
2022/05/11 10:03:07;;;;;;;8.73;1.85;;;;;;;;;;5027803;28;20299;-63
2022/05/11 10:05:34;;;;;;;7.32;2.05;;;;;;;;;;5009811;28;20278;-63
2022/05/11 10:08:04;;;;;;;9.65;2.05;;;;;;;;;;4954164;28;20580;-63
2022/05/11 10:10:47;;;;;;;7.70;2.03;;;;;;;;;;4990279;28;20228;-63
2022/05/11 10:13:20;;;;;;;4.50;2.00;;;;;;;;;;4984400;28;20232;-64
2022/05/11 10:24:12;;;;;;;8.02;2.10;;;;;;;;;;4995203;28;20223;-63
2022/05/11 10:26:39;;;;;;;8.43;2.33;;;;;;;;;;5006917;28;20224;-64
2022/05/11 10:29:08;;;;;;;8.35;2.13;;;;;;;;;;5000181;28;20224;-64
2022/05/11 10:31:34;;;;;;;9.27;1.98;;;;;;;;;;5003582;28;20224;-64
2022/05/11 10:34:13;;;;;;;7.65;1.92;;;;;;;;;;4958370;28;20212;-64
2022/05/11 10:36:46;;;;;;;7.90;2.05;;;;;;;;;;4956675;28;20258;-63
2022/05/11 10:39:14;;;;;;;10.93;2.20;;;;;;;;;;5011422;28;20219;-63
2022/05/11 10:41:45;;;;;;;8.95;2.40;;;;;;;;;;5031917;28;20215;-63
2022/05/11 10:44:20;;;;;;;6.57;2.45;;;;;;;;;;5006822;28;20232;-64
2022/05/11 10:46:57;;;;;;;9.70;2.20;;;;;;;;;;4996794;28;20860;-63
2022/05/11 10:49:22;;;;;;;11.30;2.63;;;;;;;;;;5001353;28;20302;-63
2022/05/11 10:51:54;;;;;;;14.45;2.40;;;;;;;;;;4996040;28;20704;-63
2022/05/11 10:54:28;;;;;;;9.32;2.30;;;;;;;;;;5014388;28;20216;-64
2022/05/11 10:57:00;;;;;;;7.88;2.00;;;;;;;;;;5004336;28;20243;-63
2022/05/11 10:59:28;;;;;;;10.75;2.85;;;;;;;;;;5002433;28;20232;-63
2022/05/11 11:02:01;;;;;;;7.65;2.00;;;;;;;;;;4993828;28;20230;-64
2022/05/11 11:04:27;;;;;;;8.73;2.33;;;;;;;;;;5008519;28;20248;-63
2022/05/11 11:09:40;;;;;;;7.18;2.00;;;;;;;;;;5021446;28;20633;-63
2022/05/11 11:12:17;;;;;;;16.88;2.40;;;;;;;;;;5000432;28;20205;-63
2022/05/11 11:14:43;;;;;;;8.05;2.25;;;;;;;;;;5007968;28;20723;-64
2022/05/11 11:17:10;;;;;;;6.28;1.67;;;;;;;;;;4985352;28;20218;-64
2022/05/11 11:19:35;;;;;;;6.53;2.05;;;;;;;;;;4996596;28;20220;-63
2022/05/11 11:22:01;;;;;;;5.47;1.55;;;;;;;;;;4993272;28;20215;-63
2022/05/11 11:24:27;;;;;;;6.28;2.10;;;;;;;;;;5011802;28;20251;-63
2022/05/11 11:26:54;;;;;;;5.43;1.92;;;;;;;;;;5012379;28;20221;-63
2022/05/11 11:29:21;;;;;;;8.15;1.40;;;;;;;;;;5009834;28;20227;-63
2022/05/11 11:31:58;;;;;;;4.78;1.33;;;;;;;;;;5009713;28;20683;-63
2022/05/11 11:34:25;;;;;;;6.03;1.70;;;;;;;;;;5008850;28;20227;-63
2022/05/11 11:36:51;;;;;;;7.50;1.67;;;;;;;;;;5009181;28;20211;-62
2022/05/11 11:39:35;;;;;;;6.03;1.67;;;;;;;;;;5008934;28;20217;-63
2022/05/11 11:42:01;;;;;;;8.52;1.70;;;;;;;;;;5004425;28;20652;-63
2022/05/11 11:44:30;;;;;;;6.47;2.00;;;;;;;;;;5006744;28;20209;-63
2022/05/11 11:46:56;;;;;;;10.00;1.95;;;;;;;;;;5024797;28;20583;-63
2022/05/11 11:49:24;;;;;;;8.00;2.15;;;;;;;;;;5001609;28;20226;-63
2022/05/11 11:51:49;;;;;;;6.55;1.70;;;;;;;;;;5025664;28;20630;-63
2022/05/11 11:54:25;;;;;;;6.15;1.70;;;;;;;;;;5021145;28;20223;-63
2022/05/11 11:56:51;;;;;;;7.22;1.83;;;;;;;;;;5000560;28;20258;-63
2022/05/11 11:59:35;;;;;;;7.97;1.83;;;;;;;;;;5021708;28;20273;-63
2022/05/11 12:02:04;;;;;;;10.15;1.90;;;;;;;;;;5023773;28;20638;-63
2022/05/11 12:04:31;;;;;;;9.98;2.03;;;;;;;;;;5016365;28;20308;-62
2022/05/11 12:15:23;;;;;;;6.43;2.10;;;;;;;;;;5009590;28;20266;-63
2022/05/11 12:17:49;;;;;;;7.13;2.00;;;;;;;;;;5006941;28;20212;-63
2022/05/11 12:20:17;;;;;;;6.57;1.70;;;;;;;;;;5026517;28;20293;-62
2022/05/11 12:22:46;;;;;;;7.70;1.83;;;;;;;;;;5028877;28;20395;-62
2022/05/11 12:25:23;;;;;;;11.60;2.50;;;;;;;;;;5027965;28;20318;-62
2022/05/11 12:27:48;;;;;;;7.78;2.90;;;;;;;;;;5027418;28;20229;-62
2022/05/11 12:30:19;;;;;;;6.97;2.47;;;;;;;;;;5027933;28;20227;-64
2022/05/11 12:32:49;;;;;;;7.65;2.10;;;;;;;;;;5028304;28;20573;-63
2022/05/11 12:35:18;;;;;;;7.55;1.88;;;;;;;;;;5028212;28;20215;-63
2022/05/11 12:37:44;;;;;;;10.98;2.20;;;;;;;;;;5028488;28;20554;-63
2022/05/11 12:40:17;;;;;;;7.22;2.28;;;;;;;;;;5014148;28;20212;-63
2022/05/11 12:42:43;;;;;;;8.07;2.10;;;;;;;;;;5028966;28;20703;-63
2022/05/11 12:45:10;;;;;;;7.75;2.28;;;;;;;;;;5026122;28;20219;-63
2022/05/11 12:47:37;;;;;;;7.57;2.25;;;;;;;;;;5019915;28;20232;-63
2022/05/11 12:50:02;;;;;;;8.50;2.30;;;;;;;;;;5038846;28;20262;-63
2022/05/11 12:52:28;;;;;;;10.68;3.00;;;;;;;;;;5027597;28;20215;-63
2022/05/11 12:54:55;;;;;;;12.23;3.60;;;;;;;;;;5028347;28;20702;-63
2022/05/11 12:57:20;;;;;;;11.60;2.90;;;;;;;;;;5027421;28;20216;-63
2022/05/11 12:59:54;;;;;;;10.02;2.67;;;;;;;;;;5044126;28;20247;-63
2022/05/11 13:02:21;;;;;;;10.82;2.25;;;;;;;;;;5047751;28;20269;-63
2022/05/11 13:04:51;;;;;;;8.98;2.28;;;;;;;;;;5042574;28;20560;-63
2022/05/11 13:07:17;;;;;;;6.47;2.10;;;;;;;;;;5044558;28;20301;-63
2022/05/11 13:09:44;;;;;;;11.95;2.30;;;;;;;;;;5029826;28;20609;-63
2022/05/11 13:12:10;;;;;;;10.30;2.88;;;;;;;;;;5047252;28;20233;-63
2022/05/11 13:14:37;;;;;;;5.97;2.80;;;;;;;;;;5047403;28;20218;-63
2022/05/11 13:17:04;;;;;;;6.70;2.72;;;;;;;;;;5029213;28;20314;-63
2022/05/11 13:19:32;;;;;;;7.38;2.70;;;;;;;;;;5047740;28;20226;-63
2022/05/11 13:21:58;;;;;;;7.10;2.53;;;;;;;;;;5028910;28;20215;-63
2022/05/11 13:24:36;;;;;;;6.30;2.60;;;;;;;;;;5028995;28;20203;-63
2022/05/11 13:27:01;;;;;;;7.75;2.58;;;;;;;;;;5042990;28;20227;-62
2022/05/11 13:29:27;;;;;;;11.43;3.35;;;;;;;;;;5046758;28;20218;-63
2022/05/11 13:32:04;;;;;;;9.73;2.85;;;;;;;;;;5047965;28;20218;-63
2022/05/11 13:34:30;;;;;;;8.27;2.42;;;;;;;;;;5028212;28;20222;-63
2022/05/11 13:36:56;;;;;;;8.63;2.42;;;;;;;;;;5029316;28;20227;-63
2022/05/11 13:39:27;;;;;;;9.68;2.45;;;;;;;;;;5046714;28;20207;-63
2022/05/11 13:41:55;;;;;;;6.50;2.60;;;;;;;;;;5046210;28;20678;-63
2022/05/11 13:44:22;;;;;;;11.38;2.92;;;;;;;;;;5046873;28;20227;-63
2022/05/11 13:49:33;;;;;;;8.55;2.53;;;;;;;;;;5046160;28;20252;-62
2022/05/11 13:51:59;;;;;;;8.35;2.95;;;;;;;;;;5032082;28;20565;-62
2022/05/11 13:54:26;;;;;;;9.50;2.40;;;;;;;;;;5044118;28;20711;-63
2022/05/11 13:56:57;;;;;;;12.68;2.80;;;;;;;;;;5046792;28;20666;-61
2022/05/11 13:59:23;;;;;;;8.45;2.42;;;;;;;;;;5046266;28;20258;-62
2022/05/11 14:01:48;;;;;;;9.95;2.58;;;;;;;;;;5046673;28;20219;-62
2022/05/11 14:04:17;;;;;;;8.15;2.47;;;;;;;;;;5045355;28;20211;-61
2022/05/11 14:06:56;;;;;;;11.60;2.53;;;;;;;;;;5046805;28;20222;-61
2022/05/11 14:09:21;;;;;;;7.47;1.95;;;;;;;;;;5046528;28;20245;-62
2022/05/11 14:11:46;;;;;;;8.63;2.25;;;;;;;;;;5042631;28;20235;-62
2022/05/11 14:14:12;;;;;;;7.95;2.10;;;;;;;;;;5046489;28;20631;-62
2022/05/11 14:16:38;;;;;;;7.30;2.65;;;;;;;;;;5046419;28;20213;-62
2022/05/11 14:19:03;;;;;;;9.35;2.13;;;;;;;;;;5046528;28;20211;-61
2022/05/11 14:21:28;;;;;;;11.15;2.55;;;;;;;;;;5046310;28;20226;-61
2022/05/11 14:23:53;;;;;;;11.05;2.67;;;;;;;;;;5045865;28;20210;-61
2022/05/11 14:26:19;;;;;;;9.75;2.80;;;;;;;;;;5045519;28;20316;-61
2022/05/11 14:28:45;;;;;;;6.18;1.98;;;;;;;;;;5047113;28;20306;-61
2022/05/11 14:31:12;;;;;;;10.15;2.53;;;;;;;;;;5044802;28;20502;-60
2022/05/11 14:33:37;;;;;;;6.18;2.08;;;;;;;;;;5046377;28;20217;-61
2022/05/11 14:36:02;;;;;;;11.65;2.55;;;;;;;;;;5045985;28;20207;-61
2022/05/11 14:38:28;;;;;;;8.93;2.50;;;;;;;;;;5045668;28;20630;-60
2022/05/11 14:40:53;;;;;;;7.00;2.30;;;;;;;;;;5045612;28;20219;-61
2022/05/11 14:43:18;;;;;;;10.25;2.60;;;;;;;;;;5045774;28;20678;-61
2022/05/11 14:45:44;;;;;;;5.63;2.17;;;;;;;;;;5044614;28;20245;-61
2022/05/11 14:48:12;;;;;;;10.35;2.63;;;;;;;;;;5043016;28;20218;-61
2022/05/11 14:50:38;;;;;;;13.40;2.72;;;;;;;;;;5027857;28;20302;-61
2022/05/11 14:53:04;;;;;;;10.07;2.60;;;;;;;;;;5044238;28;20306;-61
2022/05/11 14:55:29;;;;;;;9.68;2.30;;;;;;;;;;5046145;28;20586;-60
2022/05/11 15:03:23;;;;;;;7.57;1.90;;;;;;;;;;5009280;28;20309;-61
2022/05/11 15:05:48;;;;;;;9.00;2.65;;;;;;;;;;5013536;28;20326;-61
2022/05/11 15:08:14;;;;;;;8.23;2.80;;;;;;;;;;5018661;28;20226;-60
2022/05/11 15:10:40;;;;;;;12.65;2.55;;;;;;;;;;5025822;28;20219;-61
2022/05/11 15:15:49;;;;;;;10.63;2.83;;;;;;;;;;5033601;28;20222;-61
2022/05/11 15:18:16;;;;;;;9.05;2.55;;;;;;;;;;5028597;28;20216;-61
2022/05/11 15:20:41;;;;;;;8.25;2.65;;;;;;;;;;5029829;28;20310;-61
2022/05/11 15:23:07;;;;;;;13.43;3.25;;;;;;;;;;5024372;28;20211;-61
2022/05/11 15:25:32;;;;;;;9.35;2.63;;;;;;;;;;5022324;28;20224;-61
2022/05/11 15:27:58;;;;;;;11.57;2.78;;;;;;;;;;5018736;28;20216;-61
2022/05/11 15:30:25;;;;;;;8.77;2.30;;;;;;;;;;5020301;28;20223;-61
2022/05/11 15:32:50;;;;;;;7.82;2.33;;;;;;;;;;5020119;28;20219;-61